createdAt,value
2018-03-31T00:01:13.109Z,5.84
2018-03-31T00:03:39.863Z,5.84
2018-03-31T00:06:07.277Z,5.88
2018-03-31T00:08:34.083Z,5.90
2018-03-31T00:11:00.562Z,5.91
2018-03-31T00:13:27.047Z,5.82
2018-03-31T00:15:53.708Z,5.90
2018-03-31T00:18:20.239Z,5.89
2018-03-31T00:20:46.726Z,5.91
2018-03-31T00:23:14.086Z,5.96
2018-03-31T00:25:40.732Z,5.96
2018-03-31T00:28:07.229Z,5.95
2018-03-31T00:30:33.779Z,5.96
2018-03-31T00:33:01.062Z,5.92
2018-03-31T00:35:27.533Z,5.95
2018-03-31T00:37:54.153Z,5.99
2018-03-31T00:40:20.631Z,5.96
2018-03-31T00:42:47.126Z,5.96
2018-03-31T00:45:13.801Z,5.95
2018-03-31T00:47:40.332Z,5.88
2018-03-31T00:50:06.813Z,5.84
2018-03-31T00:52:33.551Z,5.80
2018-03-31T00:55:00.788Z,5.80
2018-03-31T00:57:28.074Z,5.76
2018-03-31T00:59:54.745Z,5.77
2018-03-31T01:02:21.210Z,5.80
2018-03-31T01:04:47.692Z,5.81
2018-03-31T01:07:14.496Z,5.79
2018-03-31T01:09:40.994Z,5.76
2018-03-31T01:12:07.490Z,5.79
2018-03-31T01:14:34.201Z,5.81
2018-03-31T01:17:00.682Z,5.80
2018-03-31T01:19:27.580Z,5.82
2018-03-31T01:21:54.261Z,5.80
2018-03-31T01:24:20.752Z,5.83
2018-03-31T01:26:47.391Z,5.87
2018-03-31T01:29:14.082Z,5.87
2018-03-31T01:31:40.562Z,5.80
2018-03-31T01:34:07.123Z,5.69
2018-03-31T01:36:33.810Z,5.67
2018-03-31T01:39:00.302Z,5.68
2018-03-31T01:41:26.823Z,5.61
2018-03-31T01:43:53.458Z,5.57
2018-03-31T01:46:19.947Z,5.55
2018-03-31T01:48:46.409Z,5.55
2018-03-31T01:51:12.951Z,5.63
2018-03-31T01:53:39.491Z,5.69
2018-03-31T01:56:06.178Z,5.62
2018-03-31T01:58:33.635Z,5.64
2018-03-31T02:01:00.869Z,5.49
2018-03-31T02:03:27.399Z,5.40
2018-03-31T02:05:54.162Z,5.25
2018-03-31T02:08:21.447Z,5.08
2018-03-31T02:10:47.934Z,4.96
2018-03-31T02:13:14.448Z,4.84
2018-03-31T02:15:40.936Z,4.75
2018-03-31T02:18:07.468Z,4.67
2018-03-31T02:20:34.106Z,4.64
2018-03-31T02:23:01.324Z,4.62
2018-03-31T02:25:27.831Z,4.63
2018-03-31T02:27:54.506Z,4.61
2018-03-31T02:30:20.991Z,4.62
2018-03-31T02:32:47.522Z,4.60
2018-03-31T02:35:14.109Z,4.57
2018-03-31T02:37:40.930Z,4.55
2018-03-31T02:40:07.460Z,4.51
2018-03-31T02:42:34.104Z,4.51
2018-03-31T02:45:00.579Z,4.50
2018-03-31T02:47:27.802Z,4.44
2018-03-31T02:49:54.413Z,4.39
2018-03-31T02:52:20.998Z,4.41
2018-03-31T02:54:47.472Z,4.39
2018-03-31T02:57:14.883Z,4.36
2018-03-31T02:59:41.404Z,4.35
2018-03-31T03:02:07.896Z,4.33
2018-03-31T03:04:35.215Z,4.31
2018-03-31T03:07:01.729Z,4.28
2018-03-31T03:09:28.290Z,4.27
2018-03-31T03:11:54.957Z,4.25
2018-03-31T03:14:22.223Z,4.20
2018-03-31T03:16:49.500Z,4.19
2018-03-31T03:19:16.052Z,4.21
2018-03-31T03:21:42.584Z,4.18
2018-03-31T03:24:09.056Z,4.14
2018-03-31T03:26:35.698Z,4.11
2018-03-31T03:29:02.190Z,4.10
2018-03-31T03:31:28.674Z,4.11
2018-03-31T03:33:56.067Z,4.08
2018-03-31T03:36:22.621Z,4.10
2018-03-31T03:38:49.141Z,4.11
2018-03-31T03:41:15.701Z,4.05
2018-03-31T03:43:43.020Z,4.01
2018-03-31T03:46:10.294Z,4.03
2018-03-31T03:48:36.826Z,4.01
2018-03-31T03:51:03.348Z,4.00
2018-03-31T03:53:30.611Z,3.95
2018-03-31T03:55:57.267Z,3.96
2018-03-31T03:58:23.755Z,3.92
2018-03-31T04:00:50.226Z,3.92
2018-03-31T04:03:16.909Z,3.91
2018-03-31T04:05:43.394Z,3.89
2018-03-31T04:08:10.253Z,3.87
2018-03-31T04:10:36.997Z,3.86
2018-03-31T04:13:03.512Z,3.84
2018-03-31T04:15:30.039Z,3.80
2018-03-31T04:17:57.291Z,3.78
2018-03-31T04:20:24.501Z,3.76
2018-03-31T04:22:50.975Z,3.77
2018-03-31T04:25:17.549Z,3.75
2018-03-31T04:27:44.085Z,3.72
2018-03-31T04:30:10.571Z,3.74
2018-03-31T04:32:37.085Z,3.69
2018-03-31T04:35:03.563Z,3.68
2018-03-31T04:37:30.833Z,3.65
2018-03-31T04:39:58.106Z,3.66
2018-03-31T04:42:24.607Z,3.66
2018-03-31T04:44:51.822Z,3.64
2018-03-31T04:47:18.544Z,3.63
2018-03-31T04:49:45.030Z,3.60
2018-03-31T04:52:12.300Z,3.56
2018-03-31T04:54:39.617Z,3.55
2018-03-31T04:57:06.089Z,3.55
2018-03-31T04:59:33.314Z,3.55
2018-03-31T05:01:59.972Z,3.53
2018-03-31T05:04:27.296Z,3.52
2018-03-31T05:06:53.815Z,3.46
2018-03-31T05:09:20.461Z,3.44
2018-03-31T05:11:46.980Z,3.47
2018-03-31T05:14:13.495Z,3.50
2018-03-31T05:16:40.147Z,3.49
2018-03-31T05:19:06.686Z,3.47
2018-03-31T05:21:33.207Z,3.46
2018-03-31T05:23:59.899Z,3.45
2018-03-31T05:26:26.408Z,3.46
2018-03-31T05:28:52.934Z,3.49
2018-03-31T05:31:20.007Z,3.46
2018-03-31T05:33:46.508Z,3.47
2018-03-31T05:36:13.045Z,3.47
2018-03-31T05:38:39.587Z,3.47
2018-03-31T05:41:06.068Z,3.47
2018-03-31T05:43:32.537Z,3.50
2018-03-31T05:45:59.108Z,3.49
2018-03-31T05:48:25.592Z,3.47
2018-03-31T05:50:52.082Z,3.45
2018-03-31T05:53:18.754Z,3.46
2018-03-31T05:55:45.248Z,3.46
2018-03-31T05:58:11.726Z,3.44
2018-03-31T06:00:38.396Z,3.49
2018-03-31T06:03:05.623Z,3.47
2018-03-31T06:05:32.163Z,3.44
2018-03-31T06:07:58.930Z,3.46
2018-03-31T06:10:26.191Z,3.46
2018-03-31T06:12:53.436Z,3.44
2018-03-31T06:15:20.885Z,3.46
2018-03-31T06:17:47.441Z,3.50
2018-03-31T06:20:14.709Z,3.55
2018-03-31T06:22:41.336Z,3.56
2018-03-31T06:25:08.550Z,3.58
2018-03-31T06:27:35.033Z,3.52
2018-03-31T06:30:01.562Z,3.48
2018-03-31T06:32:28.805Z,3.50
2018-03-31T06:34:56.021Z,3.49
2018-03-31T06:37:22.614Z,3.48
2018-03-31T06:39:49.821Z,3.44
2018-03-31T06:42:16.331Z,3.40
2018-03-31T06:44:48.956Z,3.38
2018-03-31T06:47:15.439Z,3.33
2018-03-31T06:49:41.990Z,3.37
2018-03-31T06:52:08.498Z,3.34
2018-03-31T06:54:34.982Z,3.31
2018-03-31T06:57:01.458Z,3.28
2018-03-31T06:59:28.721Z,3.26
2018-03-31T07:01:55.242Z,3.17
2018-03-31T07:04:22.466Z,3.20
2018-03-31T07:06:49.222Z,3.23
2018-03-31T07:09:15.689Z,3.25
2018-03-31T07:11:42.171Z,3.25
2018-03-31T07:14:08.836Z,3.27
2018-03-31T07:16:36.092Z,3.25
2018-03-31T07:19:02.573Z,3.24
2018-03-31T07:21:29.262Z,3.23
2018-03-31T07:23:55.742Z,3.25
2018-03-31T07:26:22.227Z,3.23
2018-03-31T07:28:48.920Z,3.23
2018-03-31T07:31:15.413Z,3.24
2018-03-31T07:33:41.876Z,3.27
2018-03-31T07:36:08.582Z,3.28
2018-03-31T07:38:35.063Z,3.25
2018-03-31T07:41:01.542Z,3.25
2018-03-31T07:43:28.194Z,3.25
2018-03-31T07:45:54.712Z,3.25
2018-03-31T07:48:21.238Z,3.26
2018-03-31T07:50:47.761Z,3.24
2018-03-31T07:53:14.233Z,3.24
2018-03-31T07:55:40.708Z,3.33
2018-03-31T07:58:07.427Z,3.32
2018-03-31T08:00:34.679Z,3.31
2018-03-31T08:03:01.893Z,3.32
2018-03-31T08:05:28.675Z,3.35
2018-03-31T08:07:55.927Z,3.33
2018-03-31T08:10:22.440Z,3.32
2018-03-31T08:12:49.082Z,3.32
2018-03-31T08:15:15.569Z,3.31
2018-03-31T08:17:42.047Z,3.34
2018-03-31T08:20:08.724Z,3.33
2018-03-31T08:22:35.943Z,3.37
2018-03-31T08:25:02.410Z,3.40
2018-03-31T08:27:29.783Z,3.45
2018-03-31T08:29:56.325Z,3.47
2018-03-31T08:32:22.789Z,3.50
2018-03-31T08:34:49.354Z,3.55
2018-03-31T08:37:15.883Z,3.55
2018-03-31T08:39:42.366Z,3.61
2018-03-31T08:42:08.994Z,3.64
2018-03-31T08:44:35.492Z,3.70
2018-03-31T08:47:02.055Z,3.72
2018-03-31T08:49:29.475Z,3.68
2018-03-31T08:51:55.959Z,3.69
2018-03-31T08:54:23.179Z,3.73
2018-03-31T08:56:49.888Z,3.79
2018-03-31T08:59:16.375Z,3.84
2018-03-31T09:01:42.861Z,3.81
2018-03-31T09:04:09.547Z,3.89
2018-03-31T09:06:36.117Z,3.82
2018-03-31T09:09:02.647Z,3.82
2018-03-31T09:11:30.034Z,3.86
2018-03-31T09:13:57.296Z,3.86
2018-03-31T09:16:23.765Z,3.94
2018-03-31T09:18:50.511Z,3.92
2018-03-31T09:21:17.739Z,3.93
2018-03-31T09:23:44.258Z,3.88
2018-03-31T09:26:10.924Z,3.96
2018-03-31T09:28:37.431Z,4.04
2018-03-31T09:31:03.911Z,4.08
2018-03-31T09:33:30.720Z,4.12
2018-03-31T09:35:57.197Z,4.12
2018-03-31T09:38:24.418Z,4.16
2018-03-31T09:40:51.082Z,4.22
2018-03-31T09:43:17.558Z,4.15
2018-03-31T09:45:44.033Z,4.22
2018-03-31T09:48:10.713Z,4.36
2018-03-31T09:50:37.276Z,4.54
2018-03-31T09:53:03.745Z,4.60
2018-03-31T09:55:30.255Z,4.62
2018-03-31T09:57:57.087Z,4.73
2018-03-31T10:00:29.564Z,4.79
2018-03-31T10:02:56.074Z,4.78
2018-03-31T10:05:23.337Z,4.82
2018-03-31T10:07:50.068Z,4.87
2018-03-31T10:10:17.283Z,4.84
2018-03-31T10:12:43.784Z,4.78
2018-03-31T10:15:10.468Z,4.71
2018-03-31T10:17:36.976Z,4.75
2018-03-31T10:20:03.449Z,4.80
2018-03-31T10:22:30.058Z,4.92
2018-03-31T10:24:56.583Z,4.96
2018-03-31T10:27:23.057Z,5.02
2018-03-31T10:29:49.600Z,5.13
2018-03-31T10:32:16.077Z,5.07
2018-03-31T10:34:42.599Z,5.08
2018-03-31T10:37:09.232Z,5.23
2018-03-31T10:39:36.502Z,5.29
2018-03-31T10:42:03.310Z,5.24
2018-03-31T10:44:30.062Z,5.16
2018-03-31T10:46:57.343Z,5.24
2018-03-31T10:49:23.814Z,5.27
2018-03-31T10:51:51.223Z,5.34
2018-03-31T10:54:17.718Z,5.42
2018-03-31T10:56:44.202Z,5.38
2018-03-31T10:59:10.815Z,5.42
2018-03-31T11:01:37.285Z,5.47
2018-03-31T11:04:03.761Z,5.51
2018-03-31T11:06:30.278Z,5.54
2018-03-31T11:08:56.794Z,5.55
2018-03-31T11:11:23.264Z,5.59
2018-03-31T11:13:49.888Z,5.45
2018-03-31T11:16:16.368Z,5.50
2018-03-31T11:18:43.581Z,5.55
2018-03-31T11:21:10.905Z,5.57
2018-03-31T11:23:37.425Z,5.61
2018-03-31T11:26:04.638Z,5.60
2018-03-31T11:28:31.386Z,5.61
2018-03-31T11:30:57.911Z,5.75
2018-03-31T11:33:24.400Z,5.74
2018-03-31T11:35:50.939Z,5.68
2018-03-31T11:38:17.429Z,5.61
2018-03-31T11:40:43.961Z,5.62
2018-03-31T11:43:10.647Z,5.60
2018-03-31T11:45:37.872Z,5.62
2018-03-31T11:48:04.351Z,5.63
2018-03-31T11:50:31.015Z,5.60
2018-03-31T11:52:58.305Z,5.49
2018-03-31T11:55:24.788Z,5.43
2018-03-31T11:57:51.311Z,5.44
2018-03-31T12:00:17.838Z,5.43
2018-03-31T12:02:44.320Z,5.42
2018-03-31T12:05:10.998Z,5.38
2018-03-31T12:07:38.217Z,5.37
2018-03-31T12:10:04.713Z,5.47
2018-03-31T12:12:31.420Z,5.44
2018-03-31T12:14:57.906Z,5.38
2018-03-31T12:17:24.391Z,5.21
2018-03-31T12:19:51.057Z,5.21
2018-03-31T12:22:17.573Z,5.29
2018-03-31T12:24:44.101Z,5.30
2018-03-31T12:27:10.797Z,5.24
2018-03-31T12:29:38.011Z,5.23
2018-03-31T12:32:05.276Z,5.25
2018-03-31T12:34:31.999Z,5.23
2018-03-31T12:36:59.254Z,5.21
2018-03-31T12:39:26.485Z,5.18
2018-03-31T12:41:53.119Z,5.18
2018-03-31T12:44:19.744Z,5.17
2018-03-31T12:46:46.236Z,5.21
2018-03-31T12:49:13.598Z,5.24
2018-03-31T12:51:40.117Z,5.22
2018-03-31T12:54:07.374Z,5.14
2018-03-31T12:56:34.857Z,5.09
2018-03-31T12:59:01.755Z,5.11
2018-03-31T13:01:28.994Z,5.15
2018-03-31T13:03:55.762Z,5.15
2018-03-31T13:06:22.986Z,5.16
2018-03-31T13:08:49.521Z,5.15
2018-03-31T13:11:16.367Z,5.14
2018-03-31T13:13:43.022Z,5.16
2018-03-31T13:16:09.575Z,5.12
2018-03-31T13:18:36.235Z,5.06
2018-03-31T13:21:03.467Z,5.00
2018-03-31T13:23:29.947Z,5.04
2018-03-31T13:25:56.463Z,5.03
2018-03-31T13:28:22.937Z,5.04
2018-03-31T13:30:49.415Z,5.09
2018-03-31T13:33:16.073Z,5.06
2018-03-31T13:35:42.563Z,5.00
2018-03-31T13:38:09.063Z,5.02
2018-03-31T13:40:35.635Z,5.12
2018-03-31T13:43:02.115Z,5.09
2018-03-31T13:45:29.388Z,4.98
2018-03-31T13:47:56.092Z,4.88
2018-03-31T13:50:22.624Z,4.79
2018-03-31T13:52:49.102Z,4.73
2018-03-31T13:55:15.788Z,4.75
2018-03-31T13:57:42.272Z,4.72
2018-03-31T14:00:08.751Z,4.70
2018-03-31T14:02:35.436Z,4.59
2018-03-31T14:05:01.922Z,4.52
2018-03-31T14:07:28.407Z,4.51
2018-03-31T14:09:55.779Z,4.52
2018-03-31T14:12:22.279Z,4.55
2018-03-31T14:14:48.759Z,4.58
2018-03-31T14:17:15.443Z,4.58
2018-03-31T14:19:41.959Z,4.53
2018-03-31T14:22:08.452Z,4.57
2018-03-31T14:24:35.725Z,4.54
2018-03-31T14:27:02.222Z,4.54
2018-03-31T14:29:28.700Z,4.57
2018-03-31T14:31:55.458Z,4.61
2018-03-31T14:34:21.942Z,4.67
2018-03-31T14:36:49.188Z,4.67
2018-03-31T14:39:15.864Z,4.69
2018-03-31T20:18:16.486Z,2.38
2018-03-31T20:20:42.971Z,2.43
2018-03-31T20:23:10.235Z,2.46
2018-03-31T20:25:36.770Z,2.49
2018-03-31T20:28:03.245Z,2.52
2018-03-31T20:30:29.766Z,2.54
2018-03-31T20:32:56.298Z,2.59
2018-03-31T20:35:22.813Z,2.62
2018-03-31T20:37:49.305Z,2.53
2018-03-31T20:40:16.285Z,2.58
2018-03-31T20:42:43.491Z,2.50
2018-03-31T20:45:11.032Z,2.51
2018-03-31T20:47:37.608Z,2.53
2018-03-31T20:50:04.124Z,2.51
2018-03-31T20:52:30.608Z,2.41
2018-03-31T20:54:58.003Z,2.41
2018-03-31T20:57:24.476Z,2.44
2018-03-31T20:59:50.958Z,2.46
2018-03-31T21:02:17.627Z,2.36
2018-03-31T21:04:44.115Z,2.34
2018-03-31T21:07:10.602Z,2.31
2018-03-31T21:09:37.391Z,2.23
2018-03-31T21:12:04.621Z,2.25
2018-03-31T21:14:31.106Z,2.28
2018-03-31T21:16:57.942Z,2.27
2018-03-31T21:19:24.485Z,2.26
2018-03-31T21:21:50.969Z,2.24
2018-03-31T21:24:17.635Z,2.20
2018-03-31T21:26:44.896Z,2.13
2018-03-31T21:29:12.146Z,2.13
2018-03-31T21:31:39.421Z,2.07
2018-03-31T21:34:05.951Z,2.03
2018-03-31T21:36:32.422Z,2.00
2018-03-31T21:38:58.926Z,1.96
2018-03-31T21:41:25.387Z,1.88
2018-03-31T21:43:51.864Z,1.84
2018-03-31T21:46:18.502Z,1.82
2018-03-31T21:48:45.725Z,1.72
2018-03-31T21:51:12.242Z,1.73
2018-03-31T21:53:38.938Z,1.62
2018-03-31T21:56:06.201Z,1.58
2018-03-31T21:58:33.460Z,1.52
2018-03-31T22:01:00.813Z,1.49
2018-03-31T22:03:27.326Z,1.56
2018-03-31T22:05:53.807Z,1.54
2018-03-31T22:08:20.422Z,1.55
2018-03-31T22:10:47.634Z,1.53
2018-03-31T22:13:20.092Z,1.57
2018-03-31T22:15:48.648Z,1.57
2018-03-31T22:18:15.336Z,1.55
2018-03-31T22:20:41.967Z,1.55
2018-03-31T22:23:08.628Z,1.57
2018-03-31T22:25:35.142Z,1.61
2018-03-31T22:28:01.669Z,1.59
2018-03-31T22:30:28.282Z,1.67
2018-03-31T22:32:54.811Z,1.67
2018-03-31T22:35:22.043Z,1.70
2018-03-31T22:37:49.419Z,1.72
2018-03-31T22:40:16.638Z,1.78
2018-03-31T22:42:43.114Z,1.79
2018-03-31T22:45:09.708Z,1.81
2018-03-31T22:47:36.175Z,1.84
2018-03-31T22:50:03.393Z,1.85
2018-03-31T22:52:29.956Z,1.89
2018-03-31T22:54:57.173Z,1.88
2018-03-31T22:57:23.653Z,1.92
2018-03-31T22:59:50.213Z,1.93
2018-03-31T23:02:16.749Z,1.94
2018-03-31T23:04:43.272Z,1.89
2018-03-31T23:07:10.541Z,1.90
2018-03-31T23:09:37.081Z,1.89
2018-03-31T23:12:03.617Z,1.87
2018-03-31T23:14:30.312Z,1.84
2018-03-31T23:16:56.828Z,1.83
2018-03-31T23:19:23.348Z,1.85
2018-03-31T23:21:50.029Z,1.86
2018-03-31T23:24:16.511Z,1.82
2018-03-31T23:26:43.000Z,1.87
2018-03-31T23:29:10.409Z,1.89
2018-03-31T23:31:36.870Z,1.89
2018-03-31T23:34:03.346Z,1.87
2018-03-31T23:36:30.702Z,1.85
2018-03-31T23:38:57.921Z,1.82
2018-03-31T23:41:24.453Z,1.74
2018-03-31T23:43:51.108Z,1.67
2018-03-31T23:46:17.612Z,1.66
2018-03-31T23:48:44.087Z,1.72
2018-03-31T23:51:10.820Z,1.72
2018-03-31T23:53:37.286Z,1.72
2018-03-31T23:56:04.552Z,1.71
2018-03-31T23:58:31.065Z,1.70
